createdAt,value
2019-04-01T00:00:48.261Z,7.20
2019-04-01T00:03:17.973Z,7.20
2019-04-01T00:05:47.910Z,7.10
2019-04-01T00:08:17.533Z,7.20
2019-04-01T00:10:47.217Z,7.10
2019-04-01T00:13:16.771Z,7.10
2019-04-01T00:15:46.425Z,7.10
2019-04-01T00:18:16.067Z,7.10
2019-04-01T00:20:45.775Z,7.00
2019-04-01T00:23:15.423Z,7.10
2019-04-01T00:25:45.005Z,7.10
2019-04-01T00:28:14.628Z,7.00
2019-04-01T00:30:44.254Z,7.00
2019-04-01T00:33:15.658Z,7.00
2019-04-01T00:35:45.405Z,7.00
2019-04-01T00:38:15.066Z,7.00
2019-04-01T00:40:44.669Z,7.00
2019-04-01T00:43:19.046Z,7.00
2019-04-01T00:45:49.378Z,6.90
2019-04-01T00:48:19.038Z,6.90
2019-04-01T00:50:48.668Z,6.90
2019-04-01T00:53:18.330Z,6.90
2019-04-01T00:55:47.943Z,6.80
2019-04-01T00:58:17.564Z,6.80
2019-04-01T01:00:47.202Z,6.70
2019-04-01T01:03:16.852Z,6.70
2019-04-01T01:05:46.503Z,6.70
2019-04-01T01:08:16.154Z,6.70
2019-04-01T01:10:45.793Z,6.70
2019-04-01T01:13:15.413Z,6.60
2019-04-01T01:15:45.080Z,6.70
2019-04-01T01:18:14.726Z,6.70
2019-04-01T01:20:44.445Z,6.70
2019-04-01T01:23:13.966Z,6.70
2019-04-01T01:25:43.580Z,6.70
2019-04-01T01:28:13.227Z,6.60
2019-04-01T01:30:42.870Z,6.60
2019-04-01T01:33:12.509Z,6.60
2019-04-01T01:35:42.132Z,6.50
2019-04-01T01:38:11.785Z,6.50
2019-04-01T01:40:41.469Z,6.50
2019-04-01T01:43:11.055Z,6.50
2019-04-01T01:45:40.746Z,6.40
2019-04-01T01:48:10.328Z,6.40
2019-04-01T01:50:39.985Z,6.30
2019-04-01T01:53:09.634Z,6.30
2019-04-01T01:55:39.259Z,6.30
2019-04-01T01:58:08.921Z,6.20
2019-04-01T02:00:40.165Z,6.30
2019-04-01T02:03:09.792Z,6.30
2019-04-01T02:05:39.394Z,6.20
2019-04-01T02:08:09.029Z,6.20
2019-04-01T02:10:38.644Z,6.10
2019-04-01T02:13:08.248Z,6.10
2019-04-01T02:15:37.909Z,6.00
2019-04-01T02:18:07.509Z,6.10
2019-04-01T02:20:37.134Z,6.10
2019-04-01T02:23:06.797Z,6.00
2019-04-01T02:25:36.406Z,6.00
2019-04-01T02:28:06.053Z,5.90
2019-04-01T02:30:35.783Z,5.90
2019-04-01T02:33:24.363Z,5.90
2019-04-01T02:35:57.153Z,5.90
2019-04-01T02:38:45.874Z,5.90
2019-04-01T02:41:15.530Z,5.90
2019-04-01T02:43:45.188Z,5.90
2019-04-01T02:46:14.782Z,5.90
2019-04-01T02:48:44.458Z,5.90
2019-04-01T02:51:14.099Z,5.80
2019-04-01T02:54:02.806Z,5.70
2019-04-01T02:56:51.436Z,5.70
2019-04-01T02:59:40.161Z,5.70
2019-04-01T03:02:28.874Z,5.70
2019-04-01T03:04:58.518Z,5.60
2019-04-01T03:10:22.402Z,5.60
2019-04-01T03:12:52.035Z,5.60
2019-04-01T03:15:21.658Z,5.60
2019-04-01T03:17:51.264Z,5.60
2019-04-01T03:20:39.910Z,5.60
2019-04-01T03:25:46.732Z,5.60
2019-04-01T03:28:16.377Z,5.60
2019-04-01T03:30:46.036Z,5.60
2019-04-01T03:33:34.654Z,5.70
2019-04-01T03:36:15.572Z,5.60
2019-04-01T03:38:45.204Z,5.60
2019-04-01T03:44:27.758Z,5.50
2019-04-01T03:46:57.401Z,5.40
2019-04-01T03:52:34.635Z,5.40
2019-04-01T03:55:23.233Z,5.30
2019-04-01T03:57:52.992Z,5.30
2019-04-01T04:00:41.588Z,5.20
2019-04-01T04:06:24.685Z,5.20
2019-04-01T04:08:54.384Z,5.20
2019-04-01T04:11:43.006Z,5.20
2019-04-01T04:14:31.796Z,5.20
2019-04-01T04:17:01.394Z,5.10
2019-04-01T04:19:31.067Z,5.30
2019-04-01T04:22:00.673Z,5.30
2019-04-01T04:24:49.343Z,5.30
2019-04-01T04:27:38.102Z,5.30
2019-04-01T04:30:26.750Z,5.30
2019-04-01T04:32:56.493Z,5.20
2019-04-01T04:35:26.154Z,5.20
2019-04-01T04:37:55.791Z,5.20
2019-04-01T04:40:44.643Z,5.20
2019-04-01T04:43:14.307Z,5.20
2019-04-01T04:45:44.023Z,5.20
2019-04-01T04:48:32.747Z,5.20
2019-04-01T04:51:02.405Z,5.20
2019-04-01T04:53:51.072Z,5.20
2019-04-01T04:56:39.659Z,5.10
2019-04-01T04:59:28.374Z,5.20
2019-04-01T05:01:58.010Z,5.20
2019-04-01T05:04:27.668Z,5.20
2019-04-01T05:06:57.317Z,5.20
2019-04-01T05:09:46.246Z,5.20
2019-04-01T05:15:23.431Z,5.20
2019-04-01T05:17:53.073Z,5.10
2019-04-01T05:20:34.683Z,5.10
2019-04-01T05:23:15.696Z,5.10
2019-04-01T05:25:45.974Z,5.10
2019-04-01T05:28:35.063Z,5.10
2019-04-01T05:31:25.186Z,5.10
2019-04-01T05:33:56.950Z,5.10
2019-04-01T05:36:45.987Z,5.20
2019-04-01T05:39:34.630Z,5.20
2019-04-01T05:42:23.367Z,5.20
2019-04-01T05:44:53.015Z,5.30
2019-04-01T05:47:45.178Z,5.30
2019-04-01T05:50:33.870Z,5.40
2019-04-01T05:53:03.588Z,5.40
2019-04-01T05:55:52.321Z,5.40
2019-04-01T05:58:41.028Z,5.40
2019-04-01T06:01:48.519Z,5.40
2019-04-01T06:04:37.157Z,5.40
2019-04-01T06:10:28.838Z,5.40
2019-04-01T06:13:17.618Z,5.50
2019-04-01T06:15:47.275Z,5.70
2019-04-01T06:18:35.932Z,5.70
2019-04-01T06:21:24.654Z,5.70
2019-04-01T06:24:13.543Z,5.80
2019-04-01T06:27:22.738Z,5.90
2019-04-01T06:32:49.293Z,6.00
2019-04-01T06:35:30.081Z,6.10
2019-04-01T06:38:10.897Z,6.20
2019-04-01T06:40:40.680Z,6.30
2019-04-01T06:43:29.286Z,6.60
2019-04-01T06:46:18.012Z,6.60
2019-04-01T06:48:47.743Z,6.70
2019-04-01T06:51:17.432Z,6.70
2019-04-01T06:53:47.167Z,6.90
2019-04-01T06:56:35.834Z,7.00
2019-04-01T06:59:24.518Z,7.00
2019-04-01T07:01:54.175Z,7.20
2019-04-01T07:04:23.909Z,7.30
2019-04-01T07:07:18.949Z,7.30
2019-04-01T07:10:02.977Z,7.40
2019-04-01T07:12:51.712Z,7.60
2019-04-01T07:15:40.469Z,7.60
2019-04-01T07:20:46.809Z,8.00
2019-04-01T07:23:16.399Z,8.10
2019-04-01T07:25:46.056Z,8.10
2019-04-01T07:28:15.701Z,8.00
2019-04-01T07:30:45.411Z,8.10
2019-04-01T07:33:15.016Z,8.20
2019-04-01T07:35:46.638Z,8.30
2019-04-01T07:38:16.385Z,8.40
2019-04-01T07:40:46.011Z,8.50
2019-04-01T07:43:15.689Z,8.70
2019-04-01T07:45:45.405Z,8.70
2019-04-01T07:48:15.184Z,8.70
2019-04-01T07:50:44.912Z,9.00
2019-04-01T07:53:14.601Z,9.10
2019-04-01T07:55:44.448Z,9.20
2019-04-01T07:58:14.116Z,9.30
2019-04-01T08:00:43.806Z,9.50
2019-04-01T08:03:13.478Z,9.60
2019-04-01T08:05:43.138Z,9.70
2019-04-01T08:08:12.766Z,9.60
2019-04-01T08:10:42.420Z,9.70
2019-04-01T08:13:12.050Z,9.60
2019-04-01T08:15:41.732Z,9.90
2019-04-01T08:18:11.466Z,9.90
2019-04-01T08:20:41.923Z,9.90
2019-04-01T08:23:11.602Z,10.10
2019-04-01T08:25:41.228Z,10.20
2019-04-01T08:28:10.898Z,10.40
2019-04-01T08:30:40.543Z,10.20
2019-04-01T08:33:11.216Z,10.20
2019-04-01T08:35:41.276Z,10.50
2019-04-01T08:38:10.967Z,10.30
2019-04-01T08:40:40.624Z,10.50
2019-04-01T08:43:10.279Z,10.60
2019-04-01T08:45:39.926Z,10.80
2019-04-01T08:48:09.651Z,10.80
2019-04-01T08:50:39.352Z,10.80
2019-04-01T08:53:09.054Z,10.70
2019-04-01T08:55:38.886Z,10.80
2019-04-01T08:58:08.529Z,11.00
2019-04-01T09:00:38.148Z,11.10
2019-04-01T09:03:07.798Z,11.40
2019-04-01T09:05:37.443Z,11.50
2019-04-01T09:08:07.073Z,11.60
2019-04-01T09:10:37.093Z,11.80
2019-04-01T09:13:06.822Z,11.80
2019-04-01T09:15:36.629Z,11.70
2019-04-01T09:18:06.243Z,11.80
2019-04-01T09:20:36.092Z,11.90
2019-04-01T09:23:05.745Z,12.00
2019-04-01T09:25:35.357Z,12.00
2019-04-01T09:28:05.109Z,12.10
2019-04-01T09:30:34.911Z,12.20
2019-04-01T09:33:04.585Z,12.20
2019-04-01T09:35:34.249Z,12.40
2019-04-01T09:38:03.739Z,12.60
2019-04-01T09:40:33.248Z,12.60
2019-04-01T09:43:02.737Z,12.50
2019-04-01T09:45:32.213Z,12.60
2019-04-01T09:48:01.697Z,12.90
2019-04-01T09:50:31.212Z,13.10
2019-04-01T09:53:00.711Z,13.20
2019-04-01T09:55:30.217Z,13.20
2019-04-01T09:57:59.688Z,13.30
2019-04-01T10:00:29.221Z,13.30
2019-04-01T10:02:58.798Z,13.50
2019-04-01T10:05:28.308Z,13.40
2019-04-01T10:07:57.819Z,13.50
2019-04-01T10:10:27.264Z,13.80
2019-04-01T10:12:56.777Z,13.80
2019-04-01T10:15:26.353Z,13.70
2019-04-01T10:17:55.917Z,14.00
2019-04-01T10:20:25.369Z,14.10
2019-04-01T10:22:55.095Z,14.20
2019-04-01T10:25:24.563Z,14.40
2019-04-01T10:27:54.072Z,14.40
2019-04-01T10:30:23.755Z,14.50
2019-04-01T10:32:53.252Z,14.60
2019-04-01T10:35:22.754Z,14.70
2019-04-01T10:37:52.396Z,14.60
2019-04-01T10:40:21.965Z,14.60
2019-04-01T10:42:51.536Z,14.40
2019-04-01T10:45:21.221Z,14.50
2019-04-01T10:47:50.834Z,14.50
2019-04-01T10:50:20.465Z,14.50
2019-04-01T10:52:50.014Z,14.70
2019-04-01T10:55:19.707Z,15.10
2019-04-01T10:57:49.189Z,15.10
2019-04-01T11:00:20.284Z,15.20
2019-04-01T11:02:50.357Z,15.20
2019-04-01T11:05:19.861Z,15.40
2019-04-01T11:07:49.493Z,15.30
2019-04-01T11:10:18.901Z,15.10
2019-04-01T11:12:48.410Z,15.10
2019-04-01T11:15:19.994Z,15.20
2019-04-01T11:17:52.245Z,15.60
2019-04-01T11:20:20.893Z,15.80
2019-04-01T11:22:50.400Z,15.90
2019-04-01T11:25:19.913Z,15.60
2019-04-01T11:27:49.410Z,15.60
2019-04-01T11:30:19.094Z,16.00
2019-04-01T11:32:48.721Z,16.00
2019-04-01T11:35:18.256Z,16.20
2019-04-01T11:37:47.693Z,16.10
2019-04-01T11:40:21.514Z,16.20
2019-04-01T11:42:51.029Z,16.70
2019-04-01T11:45:20.499Z,16.90
2019-04-01T11:47:50.048Z,17.20
2019-04-01T11:50:19.567Z,17.10
2019-04-01T11:52:49.307Z,16.90
2019-04-01T11:55:18.735Z,17.10
2019-04-01T11:57:48.264Z,17.30
2019-04-01T12:00:18.431Z,17.50
2019-04-01T12:02:47.919Z,17.70
2019-04-01T12:05:17.400Z,17.80
2019-04-01T12:07:46.875Z,17.50
2019-04-01T12:10:21.779Z,17.70
2019-04-01T12:12:51.260Z,17.90
2019-04-01T12:15:20.979Z,18.10
2019-04-01T12:17:53.305Z,18.00
2019-04-01T12:20:22.782Z,18.10
2019-04-01T12:22:52.240Z,18.20
2019-04-01T12:25:21.760Z,18.40
2019-04-01T12:27:51.313Z,18.40
2019-04-01T12:30:20.896Z,18.50
2019-04-01T12:32:50.440Z,18.50
2019-04-01T12:35:19.887Z,18.60
2019-04-01T12:37:49.716Z,18.90
2019-04-01T12:40:19.316Z,18.80
2019-04-01T12:42:50.811Z,18.70
2019-04-01T12:45:19.933Z,19.00
2019-04-01T12:47:49.408Z,18.90
2019-04-01T12:50:19.000Z,19.00
2019-04-01T12:52:48.460Z,19.20
2019-04-01T12:55:17.988Z,19.40
2019-04-01T12:57:48.555Z,19.20
2019-04-01T13:00:18.621Z,19.20
2019-04-01T13:02:49.478Z,19.30
2019-04-01T13:05:19.020Z,19.10
2019-04-01T13:07:49.167Z,19.40
2019-04-01T13:10:20.309Z,18.90
2019-04-01T13:12:53.747Z,18.90
2019-04-01T13:15:21.293Z,19.20
2019-04-01T13:17:50.868Z,19.20
2019-04-01T13:20:20.320Z,19.50
2019-04-01T13:22:49.790Z,18.90
2019-04-01T13:25:19.285Z,18.80
2019-04-01T13:27:48.833Z,18.50
2019-04-01T13:30:18.602Z,18.20
2019-04-01T13:32:48.818Z,17.80
2019-04-01T13:35:18.423Z,17.50
2019-04-01T13:37:47.881Z,17.70
2019-04-01T13:40:19.527Z,18.10
2019-04-01T13:42:48.521Z,18.20
2019-04-01T13:45:17.974Z,18.70
2019-04-01T13:47:47.511Z,19.20
2019-04-01T13:50:17.036Z,19.60
2019-04-01T13:52:46.562Z,19.50
2019-04-01T13:55:16.022Z,19.20
2019-04-01T13:57:45.515Z,19.00
2019-04-01T14:00:15.323Z,19.10
2019-04-01T14:02:44.897Z,18.50
2019-04-01T14:05:14.555Z,18.60
2019-04-01T14:07:44.039Z,18.80
2019-04-01T14:10:13.737Z,18.60
2019-04-01T14:12:43.200Z,18.70
2019-04-01T14:15:13.195Z,18.70
2019-04-01T14:17:42.664Z,18.40
2019-04-01T14:20:12.364Z,18.40
2019-04-01T14:22:44.345Z,17.70
2019-04-01T14:25:14.003Z,17.50
2019-04-01T14:27:43.692Z,17.30
2019-04-01T14:30:13.356Z,17.60
2019-04-01T14:32:42.889Z,18.10
2019-04-01T14:35:12.360Z,18.60
2019-04-01T14:37:41.900Z,18.20
2019-04-01T14:40:11.364Z,18.00
2019-04-01T14:42:40.894Z,18.10
2019-04-01T14:45:10.482Z,17.60
2019-04-01T14:47:56.082Z,17.70
2019-04-01T14:50:11.199Z,18.20
2019-04-01T14:52:41.371Z,18.60
2019-04-01T14:55:11.080Z,19.20
2019-04-01T14:57:40.542Z,19.50
2019-04-01T15:00:13.576Z,19.90
2019-04-01T15:02:43.151Z,20.20
2019-04-01T15:05:12.836Z,19.60
2019-04-01T15:07:42.316Z,19.90
2019-04-01T15:10:11.813Z,19.80
2019-04-01T15:12:41.323Z,19.70
2019-04-01T15:15:10.994Z,19.20
2019-04-01T15:17:40.501Z,19.10
2019-04-01T15:20:10.278Z,19.30
2019-04-01T15:22:39.769Z,19.40
2019-04-01T15:25:09.328Z,19.60
2019-04-01T15:27:38.847Z,19.80
2019-04-01T15:30:08.464Z,20.50
2019-04-01T15:32:37.948Z,20.00
2019-04-01T15:35:07.788Z,19.70
2019-04-01T15:37:37.326Z,19.80
2019-04-01T15:40:07.323Z,19.70
2019-04-01T15:42:36.737Z,19.30
2019-04-01T15:45:06.816Z,19.40
2019-04-01T15:47:36.328Z,19.40
2019-04-01T15:50:06.449Z,19.40
2019-04-01T15:52:35.921Z,19.20
2019-04-01T15:55:06.011Z,19.40
2019-04-01T15:57:35.488Z,19.30
2019-04-01T16:00:06.966Z,19.20
2019-04-01T16:02:36.431Z,19.20
2019-04-01T16:05:06.618Z,19.20
2019-04-01T16:07:36.100Z,19.40
2019-04-01T16:10:06.266Z,19.00
2019-04-01T16:12:35.702Z,19.20
2019-04-01T16:15:05.583Z,18.80
2019-04-01T16:17:35.081Z,18.30
2019-04-01T16:20:05.292Z,18.10
2019-04-01T16:22:34.855Z,17.80
2019-04-01T16:25:04.727Z,17.30
2019-04-01T16:27:34.216Z,17.10
2019-04-01T16:30:04.573Z,17.40
2019-04-01T16:32:34.057Z,17.60
2019-04-01T16:35:03.551Z,17.60
2019-04-01T16:37:33.026Z,17.50
2019-04-01T16:40:05.658Z,17.30
2019-04-01T16:42:33.661Z,17.40
2019-04-01T16:45:03.268Z,17.60
2019-04-01T16:47:32.741Z,17.70
2019-04-01T16:50:02.582Z,17.40
2019-04-01T16:52:32.046Z,17.30
2019-04-01T16:55:03.482Z,16.80
2019-04-01T16:57:32.976Z,16.90
2019-04-01T17:00:02.437Z,16.30
2019-04-01T17:02:32.953Z,16.20
2019-04-01T17:05:02.497Z,16.10
2019-04-01T17:07:31.997Z,16.10
2019-04-01T17:10:04.085Z,15.70
2019-04-01T17:12:33.472Z,15.60
2019-04-01T17:15:03.662Z,15.40
2019-04-01T17:17:33.280Z,15.20
2019-04-01T17:20:02.771Z,15.00
2019-04-01T17:22:32.460Z,14.80
2019-04-01T17:25:01.919Z,14.50
2019-04-01T17:27:31.496Z,14.40
2019-04-01T17:30:01.364Z,14.30
2019-04-01T17:32:30.912Z,14.20
2019-04-01T17:35:00.418Z,14.10
2019-04-01T17:37:29.880Z,14.00
2019-04-01T17:39:59.384Z,13.90
2019-04-01T17:42:28.840Z,13.80
2019-04-01T17:45:00.579Z,13.70
2019-04-01T17:47:30.036Z,13.70
2019-04-01T17:50:00.265Z,13.50
2019-04-01T17:52:30.053Z,13.50
2019-04-01T17:54:59.520Z,13.40
2019-04-01T17:57:28.987Z,13.30
2019-04-01T17:59:58.484Z,13.20
2019-04-01T18:02:30.468Z,13.20
2019-04-01T18:05:00.015Z,13.20
2019-04-01T18:07:29.568Z,13.00
2019-04-01T18:09:59.198Z,13.00
2019-04-01T18:12:29.426Z,12.90
2019-04-01T18:14:58.977Z,12.90
2019-04-01T18:17:28.617Z,12.80
2019-04-01T18:19:58.148Z,12.80
2019-04-01T18:22:28.937Z,12.70
2019-04-01T18:24:58.537Z,12.60
2019-04-01T18:27:28.231Z,12.50
2019-04-01T18:29:57.707Z,12.40
2019-04-01T18:32:27.242Z,12.40
2019-04-01T18:34:56.707Z,12.40
2019-04-01T18:37:26.204Z,12.40
2019-04-01T18:39:57.292Z,12.30
2019-04-01T18:42:26.999Z,12.30
2019-04-01T18:44:56.536Z,12.20
2019-04-01T18:47:26.140Z,12.10
2019-04-01T18:49:55.591Z,12.10
2019-04-01T18:52:25.112Z,11.90
2019-04-01T18:54:54.564Z,11.90
2019-04-01T18:57:24.097Z,11.80
2019-04-01T18:59:53.920Z,11.70
2019-04-01T19:02:23.420Z,11.60
2019-04-01T19:04:52.878Z,11.50
2019-04-01T19:07:22.386Z,11.50
2019-04-01T19:10:05.281Z,11.60
2019-04-01T19:12:23.042Z,11.60
2019-04-01T19:14:52.518Z,11.60
2019-04-01T19:17:22.037Z,11.50
2019-04-01T19:19:51.514Z,11.40
2019-04-01T19:22:21.117Z,11.40
2019-04-01T19:24:50.590Z,11.40
2019-04-01T19:27:20.128Z,11.40
2019-04-01T19:29:49.604Z,11.50
2019-04-01T19:32:19.081Z,11.30
2019-04-01T19:34:48.592Z,11.30
2019-04-01T19:37:18.336Z,11.20
2019-04-01T19:39:47.877Z,11.30
2019-04-01T19:42:18.083Z,11.20
2019-04-01T19:44:47.746Z,11.20
2019-04-01T19:47:17.219Z,11.10
2019-04-01T19:49:46.687Z,11.10
2019-04-01T19:52:16.213Z,11.10
2019-04-01T19:54:45.697Z,11.10
2019-04-01T19:57:19.400Z,11.10
2019-04-01T19:59:48.865Z,11.00
2019-04-01T20:02:18.373Z,11.00
2019-04-01T20:04:47.846Z,11.00
2019-04-01T20:07:17.353Z,10.90
2019-04-01T20:09:48.489Z,10.90
2019-04-01T20:12:17.980Z,10.80
2019-04-01T20:14:47.469Z,10.70
2019-04-01T20:17:16.950Z,10.90
2019-04-01T20:19:46.477Z,10.90
2019-04-01T20:22:15.938Z,10.80
2019-04-01T20:24:45.438Z,10.70
2019-04-01T20:27:15.271Z,10.80
2019-04-01T20:29:45.030Z,10.70
2019-04-01T20:32:17.503Z,10.80
2019-04-01T20:34:56.365Z,10.80
2019-04-01T20:37:16.928Z,10.90
2019-04-01T20:39:46.386Z,10.80
2019-04-01T20:42:17.064Z,10.80
2019-04-01T20:44:46.900Z,10.80
2019-04-01T20:47:16.769Z,10.80
2019-04-01T20:49:46.192Z,10.80
2019-04-01T20:52:16.055Z,10.80
2019-04-01T20:54:45.485Z,10.90
2019-04-01T20:57:14.981Z,10.90
2019-04-01T20:59:44.419Z,10.80
2019-04-01T21:02:13.887Z,10.80
2019-04-01T21:04:43.374Z,10.80
2019-04-01T21:07:12.837Z,10.80
2019-04-01T21:09:42.333Z,10.90
2019-04-01T21:12:11.823Z,10.80
2019-04-01T21:14:41.285Z,10.80
2019-04-01T21:17:10.798Z,10.80
2019-04-01T21:19:40.297Z,10.80
2019-04-01T21:22:09.769Z,10.80
2019-04-01T21:24:39.214Z,10.70
2019-04-01T21:27:08.698Z,10.70
2019-04-01T21:29:38.152Z,10.70
2019-04-01T21:32:07.633Z,10.60
2019-04-01T21:34:37.088Z,10.60
2019-04-01T21:37:06.572Z,10.50
2019-04-01T21:39:37.795Z,10.50
2019-04-01T21:42:07.180Z,10.50
2019-04-01T21:44:36.662Z,10.50
2019-04-01T21:47:06.141Z,10.50
2019-04-01T21:49:37.055Z,10.40
2019-04-01T21:52:06.884Z,10.40
2019-04-01T21:54:36.375Z,10.40
2019-04-01T21:57:05.846Z,10.40
2019-04-01T21:59:35.337Z,10.30
2019-04-01T22:02:05.810Z,10.30
2019-04-01T22:04:35.292Z,10.30
2019-04-01T22:07:04.758Z,10.20
2019-04-01T22:09:34.471Z,10.20
2019-04-01T22:12:03.903Z,10.30
2019-04-01T22:14:33.385Z,10.30
2019-04-01T22:17:02.849Z,10.30
2019-04-01T22:19:32.349Z,10.20
2019-04-01T22:22:01.824Z,10.10
2019-04-01T22:24:32.887Z,10.20
2019-04-01T22:27:02.629Z,10.10
2019-04-01T22:29:32.114Z,10.10
2019-04-01T22:32:01.565Z,10.00
2019-04-01T22:34:31.054Z,10.00
2019-04-01T22:37:00.501Z,9.80
2019-04-01T22:39:29.993Z,9.70
2019-04-01T22:41:59.465Z,9.60
2019-04-01T22:44:29.005Z,9.40
2019-04-01T22:46:58.500Z,9.30
2019-04-01T22:49:27.969Z,9.10
2019-04-01T22:51:57.476Z,9.00
2019-04-01T22:54:26.951Z,8.90
2019-04-01T22:56:56.400Z,8.90
2019-04-01T22:59:25.894Z,8.90
2019-04-01T23:01:55.352Z,9.00
2019-04-01T23:04:24.970Z,9.00
2019-04-01T23:06:54.363Z,9.00
2019-04-01T23:09:23.837Z,8.80
2019-04-01T23:11:53.440Z,8.70
2019-04-01T23:14:23.603Z,8.50
2019-04-01T23:16:53.055Z,8.40
2019-04-01T23:19:22.509Z,8.30
2019-04-01T23:21:51.997Z,8.30
2019-04-01T23:24:21.432Z,8.30
2019-04-01T23:26:50.909Z,8.30
2019-04-01T23:29:22.052Z,8.30
2019-04-01T23:31:51.649Z,8.30
2019-04-01T23:34:21.143Z,8.20
2019-04-01T23:36:50.600Z,8.20
2019-04-01T23:39:20.080Z,8.10
2019-04-01T23:41:49.529Z,8.00
2019-04-01T23:44:19.007Z,7.90
2019-04-01T23:46:48.487Z,7.80
2019-04-01T23:49:17.953Z,7.70
2019-04-01T23:51:47.403Z,7.60
2019-04-01T23:54:16.892Z,7.60
2019-04-01T23:56:46.344Z,7.50
2019-04-01T23:59:15.825Z,7.40
